Time;durP1;ratioP1;P1;durP2;ratioP2;P2;SDS_P1;SDS_P2;PMS_P1;PMS_P2;Temp;Humidity;BMP_temperature;BMP_pressure;BME280_temperature;BME280_humidity;BME280_pressure;Samples;Min_cycle;Max_cycle;Signal;HPM_P1;HPM_P2
2021/07/10 00:01:05;;;;;;;9.30;7.10;;;;;;;17.38;85.71;99413.43;1663575;84;20944;-65
2021/07/10 00:03:32;;;;;;;11.50;7.90;;;;;;;17.39;85.75;99401.45;1628715;85;20951;-66
2021/07/10 00:05:58;;;;;;;14.27;8.40;;;;;;;17.42;85.77;99405.61;1629745;85;21221;-65
2021/07/10 00:08:25;;;;;;;9.68;7.47;;;;;;;17.44;85.78;99410.29;1628755;86;21255;-65
2021/07/10 00:10:52;;;;;;;8.20;7.25;;;;;;;17.46;85.76;99407.06;1632175;86;21539;-65
2021/07/10 00:13:18;;;;;;;12.60;8.25;;;;;;;17.45;85.78;99398.30;1658734;84;21529;-65
2021/07/10 00:15:45;;;;;;;10.48;8.00;;;;;;;17.46;85.76;99401.78;1659592;84;21454;-65
2021/07/10 00:18:12;;;;;;;10.08;7.90;;;;;;;17.46;85.84;99404.42;1663276;85;20951;-65
2021/07/10 00:20:39;;;;;;;9.50;8.40;;;;;;;17.43;86.07;99394.11;1673098;84;20971;-65
2021/07/10 00:23:06;;;;;;;10.90;8.08;;;;;;;17.43;86.07;99394.11;1671424;84;21034;-65
2021/07/10 00:25:33;;;;;;;13.13;8.85;;;;;;;17.43;85.97;99399.39;1671614;85;21443;-65
2021/07/10 00:27:59;;;;;;;10.38;8.50;;;;;;;17.42;85.96;99389.77;1674319;84;21488;-65
2021/07/10 00:30:26;;;;;;;10.80;8.23;;;;;;;17.40;86.05;99392.55;1671993;84;20935;-65
2021/07/10 00:32:52;;;;;;;16.37;8.47;;;;;;;17.39;86.11;99390.02;1672688;84;20936;-65
2021/07/10 00:35:19;;;;;;;11.13;8.37;;;;;;;17.39;86.14;99390.02;1673453;85;21117;-66
2021/07/10 00:37:46;;;;;;;;;;;;;;;17.40;86.20;99382.00;1676940;85;20916;-66
2021/07/10 00:40:14;;;;;;;9.55;8.03;;;;;;;17.42;86.35;99384.50;1673670;83;20124;-65
2021/07/10 00:42:41;;;;;;;11.18;7.92;;;;;;;17.41;86.32;99380.19;1672207;85;20960;-66
2021/07/10 00:45:10;;;;;;;8.63;7.72;;;;;;;17.39;86.30;99374.19;1670485;84;20915;-65
2021/07/10 00:47:37;;;;;;;9.73;8.15;;;;;;;17.36;86.27;99370.00;1670854;84;21830;-65
2021/07/10 00:50:12;;;;;;;11.73;7.72;;;;;;;17.33;86.30;99374.70;1671704;84;20975;-65
2021/07/10 00:52:39;;;;;;;12.10;7.90;;;;;;;17.29;86.36;99373.28;1671189;83;20924;-65
2021/07/10 00:55:07;;;;;;;10.50;8.60;;;;;;;17.28;86.47;99379.50;1651575;86;20947;-65
2021/07/10 00:57:35;;;;;;;10.55;8.60;;;;;;;17.25;86.47;99373.98;1646355;86;20991;-65
2021/07/10 01:00:06;;;;;;;7.90;7.10;;;;;;;17.23;86.50;99375.45;1686658;84;21060;-66
2021/07/10 01:02:33;;;;;;;8.50;7.45;;;;;;;17.20;86.54;99367.78;1687466;84;20939;-65
2021/07/10 01:05:01;;;;;;;9.70;8.10;;;;;;;17.16;86.61;99364.18;1682409;84;20989;-65
2021/07/10 01:07:27;;;;;;;10.50;8.15;;;;;;;17.13;86.57;99369.22;1689145;84;20914;-65
2021/07/10 01:09:54;;;;;;;10.88;8.23;;;;;;;17.10;86.63;99365.51;1651429;86;20953;-65
2021/07/10 01:12:20;;;;;;;10.45;7.85;;;;;;;17.08;86.66;99367.42;1685358;84;21294;-65
2021/07/10 01:14:48;;;;;;;11.53;8.90;;;;;;;17.06;86.70;99366.73;1682552;84;21034;-65
2021/07/10 01:17:14;;;;;;;9.25;7.97;;;;;;;17.05;86.68;99366.35;1684151;84;20962;-65
2021/07/10 01:19:41;;;;;;;12.20;8.70;;;;;;;17.01;86.76;99357.02;1687926;84;20951;-65
2021/07/10 01:22:10;;;;;;;12.85;8.75;;;;;;;16.98;86.83;99362.55;1683343;84;20949;-65
2021/07/10 01:24:37;;;;;;;13.53;8.83;;;;;;;16.96;86.87;99356.55;1639988;86;21518;-65
2021/07/10 01:27:04;;;;;;;12.75;9.38;;;;;;;16.94;86.94;99352.73;1675538;84;20896;-65
2021/07/10 01:29:32;;;;;;;13.93;9.88;;;;;;;16.93;87.03;99346.24;1671401;85;27076;-65
2021/07/10 01:32:00;;;;;;;13.13;9.75;;;;;;;16.91;87.13;99346.35;1670229;85;20963;-66
2021/07/10 01:34:29;;;;;;;11.83;9.68;;;;;;;16.91;87.21;99350.80;1672450;85;20888;-65
2021/07/10 01:36:55;;;;;;;13.60;10.03;;;;;;;16.90;87.24;99349.12;1672350;85;21120;-65
2021/07/10 01:39:22;;;;;;;13.40;10.53;;;;;;;16.89;87.27;99343.02;1676195;85;20971;-65
2021/07/10 01:41:49;;;;;;;11.57;9.73;;;;;;;16.90;87.35;99340.73;1672758;85;20869;-65
2021/07/10 01:44:15;;;;;;;11.88;10.15;;;;;;;16.91;87.36;99348.16;1675836;85;20915;-65
2021/07/10 01:46:42;;;;;;;13.65;10.53;;;;;;;16.94;87.50;99346.59;1673832;85;20967;-66
2021/07/10 01:49:08;;;;;;;12.30;11.00;;;;;;;16.96;87.61;99352.59;1677464;85;21975;-65
2021/07/10 01:51:36;;;;;;;13.25;9.58;;;;;;;17.01;87.69;99358.34;1671246;85;20923;-66
2021/07/10 01:54:03;;;;;;;12.10;10.28;;;;;;;17.05;87.82;99350.53;1676801;85;20972;-65
2021/07/10 01:56:29;;;;;;;;;;;;;;;17.10;87.80;99347.05;1679531;85;20907;-66
2021/07/10 01:58:56;;;;;;;13.85;10.13;;;;;;;17.15;87.92;99348.84;1673427;85;20114;-66
2021/07/10 02:01:23;;;;;;;11.73;10.53;;;;;;;17.18;87.89;99356.50;1671818;85;21089;-66
2021/07/10 02:03:50;;;;;;;13.88;10.55;;;;;;;17.23;87.97;99362.25;1675813;85;20908;-65
2021/07/10 02:06:17;;;;;;;12.47;9.30;;;;;;;17.28;87.97;99348.70;1672813;85;20900;-65
2021/07/10 02:08:43;;;;;;;13.53;10.53;;;;;;;17.32;87.96;99350.11;1668807;85;20980;-66
2021/07/10 02:11:11;;;;;;;17.23;10.60;;;;;;;17.37;88.03;99347.11;1672447;85;20915;-65
2021/07/10 02:13:37;;;;;;;;;;;;;;;17.41;88.02;99345.88;1676100;85;21115;-65
2021/07/10 02:16:04;;;;;;;13.53;9.70;;;;;;;17.44;88.08;99345.14;1676052;85;20222;-65
2021/07/10 02:18:31;;;;;;;14.35;11.03;;;;;;;17.47;88.02;99345.37;1669980;85;20935;-65
2021/07/10 02:20:58;;;;;;;16.00;11.38;;;;;;;17.50;88.01;99347.77;1648288;85;20964;-65
2021/07/10 02:23:25;;;;;;;15.98;11.18;;;;;;;17.54;88.08;99343.92;1642826;85;20932;-65
2021/07/10 02:25:51;;;;;;;12.20;11.00;;;;;;;17.56;88.08;99339.83;1653258;85;21050;-65
2021/07/10 02:28:18;;;;;;;14.85;11.12;;;;;;;17.57;88.06;99333.59;1662363;85;20998;-66
2021/07/10 02:30:45;;;;;;;14.47;10.63;;;;;;;17.57;88.08;99325.19;1628609;86;20960;-66
2021/07/10 02:33:11;;;;;;;12.18;10.82;;;;;;;17.59;88.11;99331.19;1619808;86;22056;-66
2021/07/10 02:35:38;;;;;;;14.53;9.95;;;;;;;17.61;88.14;99337.16;1622931;86;22110;-65
2021/07/10 02:38:05;;;;;;;14.43;10.27;;;;;;;17.62;88.08;99345.45;1621145;86;21059;-65
2021/07/10 02:40:31;;;;;;;;;;;;;;;17.62;88.08;99345.45;1658783;85;21319;-65
2021/07/10 02:42:58;;;;;;;17.20;10.28;;;;;;;17.64;88.26;99342.22;1659700;85;20148;-66
2021/07/10 02:45:25;;;;;;;14.15;10.93;;;;;;;17.65;88.27;99342.55;1650248;85;20953;-65
2021/07/10 02:47:51;;;;;;;14.23;11.78;;;;;;;17.66;88.27;99344.22;1658276;85;20887;-65
2021/07/10 02:50:22;;;;;;;16.62;11.93;;;;;;;17.67;88.35;99347.23;1630926;86;21034;-66
2021/07/10 02:52:49;;;;;;;14.30;12.37;;;;;;;17.68;88.36;99346.27;1658586;85;21441;-66
2021/07/10 02:55:16;;;;;;;14.68;12.33;;;;;;;17.70;88.42;99347.92;1662655;85;27382;-65
2021/07/10 02:57:42;;;;;;;15.90;12.95;;;;;;;17.71;88.34;99339.06;1653831;85;20880;-65
2021/07/10 03:00:14;;;;;;;13.62;11.90;;;;;;;17.72;88.37;99343.36;1662653;85;20986;-65
2021/07/10 03:02:41;;;;;;;15.00;12.13;;;;;;;17.73;88.46;99351.17;1649915;85;20989;-66
2021/07/10 03:05:08;;;;;;;;;;;;;;;17.73;88.43;99350.31;1663187;85;20912;-65
2021/07/10 03:07:39;;;;;;;13.72;12.33;;;;;;;17.75;88.56;99353.67;1657729;85;20494;-66
2021/07/10 03:10:12;;;;;;;16.45;12.13;;;;;;;17.75;88.53;99347.06;1655024;85;21523;-65
2021/07/10 03:12:39;;;;;;;14.45;11.30;;;;;;;17.77;88.52;99349.11;1657483;85;20966;-66
2021/07/10 03:15:07;;;;;;;22.13;11.83;;;;;;;17.79;88.45;99351.18;1629327;86;21038;-65
2021/07/10 03:17:34;;;;;;;16.02;11.85;;;;;;;17.80;88.47;99350.20;1655511;85;20978;-66
2021/07/10 03:20:03;;;;;;;13.15;11.43;;;;;;;17.82;88.48;99353.56;1667880;85;26447;-65
2021/07/10 03:22:30;;;;;;;13.15;11.28;;;;;;;17.82;88.48;99352.23;1672420;85;20958;-66
2021/07/10 03:24:56;;;;;;;13.30;11.90;;;;;;;17.83;88.52;99357.86;1672839;85;21631;-66
2021/07/10 03:27:23;;;;;;;14.53;11.90;;;;;;;17.87;88.49;99350.06;1669003;85;21325;-66
2021/07/10 03:29:49;;;;;;;16.02;10.65;;;;;;;17.92;88.55;99342.56;1667997;85;20958;-66
2021/07/10 03:32:16;;;;;;;11.40;9.95;;;;;;;18.01;88.52;99339.17;1673649;85;20958;-65
2021/07/10 03:34:42;;;;;;;16.67;11.25;;;;;;;18.06;88.48;99336.98;1669721;85;20915;-66
2021/07/10 03:37:09;;;;;;;14.68;10.85;;;;;;;18.11;88.37;99345.33;1672225;85;21565;-66
2021/07/10 03:39:36;;;;;;;14.00;10.85;;;;;;;18.11;88.37;99344.02;1668730;85;21052;-65
2021/07/10 03:42:02;;;;;;;13.22;9.68;;;;;;;18.11;88.38;99353.26;1673935;85;20939;-66
2021/07/10 03:44:29;;;;;;;11.85;10.48;;;;;;;18.03;88.31;99326.65;1667376;85;21409;-66
2021/07/10 03:46:56;;;;;;;10.82;9.63;;;;;;;18.03;88.31;99326.65;1673428;85;20896;-65
2021/07/10 03:49:22;;;;;;;17.23;10.70;;;;;;;18.17;88.41;99352.39;1673624;85;20928;-66
2021/07/10 03:51:49;;;;;;;14.05;10.00;;;;;;;18.18;88.41;99350.95;1674300;85;21045;-65
2021/07/10 03:54:15;;;;;;;15.20;9.77;;;;;;;18.20;88.45;99348.17;1670783;85;20932;-65
2021/07/10 03:56:42;;;;;;;11.38;10.15;;;;;;;18.14;88.23;99327.55;1673168;85;22161;-66
2021/07/10 03:59:09;;;;;;;13.38;9.48;;;;;;;18.25;88.44;99345.98;1652787;86;21022;-66
2021/07/10 04:01:35;;;;;;;10.75;9.15;;;;;;;18.28;88.46;99339.11;1675254;85;20943;-66
2021/07/10 04:04:03;;;;;;;9.38;8.25;;;;;;;18.34;88.50;99345.18;1674884;85;21062;-65
2021/07/10 04:06:29;;;;;;;11.88;8.23;;;;;;;18.43;88.55;99342.23;1677563;85;21499;-66
2021/07/10 04:08:56;;;;;;;11.88;8.53;;;;;;;18.55;88.44;99335.91;1642801;86;21476;-65
2021/07/10 04:11:23;;;;;;;11.38;9.40;;;;;;;18.62;88.48;99337.03;1680152;84;20947;-65
2021/07/10 04:13:49;;;;;;;11.15;8.38;;;;;;;18.75;88.44;99340.81;1682536;84;20970;-66
2021/07/10 04:16:16;;;;;;;10.58;8.60;;;;;;;18.83;88.26;99343.63;1685465;84;21070;-65
2021/07/10 04:18:43;;;;;;;14.83;8.30;;;;;;;18.87;88.09;99339.73;1684727;84;20940;-66
2021/07/10 04:21:10;;;;;;;11.43;7.80;;;;;;;18.92;88.10;99338.02;1657003;85;20948;-65
2021/07/10 04:23:37;;;;;;;9.68;8.18;;;;;;;18.97;88.07;99342.42;1625673;86;21518;-66
2021/07/10 04:26:03;;;;;;;11.63;8.68;;;;;;;18.94;87.89;99338.23;1626876;86;21619;-65
2021/07/10 04:28:30;;;;;;;14.70;9.40;;;;;;;18.88;87.69;99338.78;1645829;85;21088;-65
2021/07/10 04:30:56;;;;;;;12.55;9.40;;;;;;;18.84;87.82;99341.32;1653313;85;20926;-65
2021/07/10 04:33:23;;;;;;;13.75;9.40;;;;;;;18.81;87.82;99345.56;1655410;85;20924;-66
2021/07/10 04:35:50;;;;;;;13.95;9.90;;;;;;;18.81;87.85;99350.02;1625257;86;20908;-65
2021/07/10 04:38:17;;;;;;;11.75;8.83;;;;;;;18.78;87.74;99349.80;1654221;85;20922;-66
2021/07/10 04:40:43;;;;;;;9.68;8.38;;;;;;;18.75;87.73;99356.69;1632934;86;21057;-66
2021/07/10 04:43:11;;;;;;;12.28;7.95;;;;;;;18.73;87.80;99353.30;1623541;86;21456;-66
2021/07/10 04:45:39;;;;;;;10.90;7.95;;;;;;;18.76;87.77;99358.34;1654193;84;20932;-65
2021/07/10 04:48:08;;;;;;;13.48;8.33;;;;;;;18.81;87.85;99356.14;1658870;85;20969;-66
2021/07/10 04:50:35;;;;;;;15.03;8.13;;;;;;;18.96;88.04;99353.95;1661375;85;20940;-66
2021/07/10 04:53:01;;;;;;;13.22;7.92;;;;;;;19.20;87.79;99349.14;1658288;85;21907;-66
2021/07/10 04:55:28;;;;;;;10.08;7.35;;;;;;;19.38;87.56;99344.03;1657648;85;21478;-66
2021/07/10 04:57:55;;;;;;;11.25;7.40;;;;;;;19.45;87.12;99349.10;1660074;85;20945;-66
2021/07/10 05:00:23;;;;;;;10.72;6.45;;;;;;;19.47;86.77;99344.18;1659177;85;20935;-65
2021/07/10 05:02:49;;;;;;;16.15;6.78;;;;;;;19.42;86.50;99349.39;1618492;86;20935;-66
2021/07/10 05:05:16;;;;;;;9.85;6.10;;;;;;;19.62;86.77;99348.07;1659800;85;21069;-65
2021/07/10 05:07:44;;;;;;;14.43;6.30;;;;;;;19.78;86.28;99353.68;1657670;85;20939;-66
2021/07/10 05:10:12;;;;;;;8.65;5.45;;;;;;;19.83;86.18;99352.78;1659840;85;20933;-66
2021/07/10 05:12:39;;;;;;;12.15;6.25;;;;;;;20.01;85.99;99350.73;1649871;85;20987;-66
2021/07/10 05:15:07;;;;;;;7.60;5.28;;;;;;;20.06;85.62;99353.80;1650131;85;21478;-66
2021/07/10 05:17:33;;;;;;;8.53;5.50;;;;;;;20.08;85.83;99357.12;1645640;85;21116;-66
2021/07/10 05:20:00;;;;;;;8.75;5.28;;;;;;;20.13;85.62;99364.16;1662994;84;20943;-66
2021/07/10 05:22:27;;;;;;;10.32;5.55;;;;;;;19.99;85.02;99372.55;1651458;85;20884;-66
2021/07/10 05:24:54;;;;;;;;;;;;;;;19.74;84.72;99373.46;1678183;84;20971;-66
2021/07/10 05:27:20;;;;;;;4.67;4.10;;;;;;;19.61;85.23;99370.25;1673784;84;20444;-66
2021/07/10 05:29:47;;;;;;;7.15;4.00;;;;;;;20.66;86.80;99375.56;1684426;84;21061;-66
2021/07/10 05:32:14;;;;;;;4.83;3.33;;;;;;;22.09;86.55;99363.78;1676736;84;21071;-66
2021/07/10 05:34:41;;;;;;;6.67;3.08;;;;;;;23.32;84.38;99363.61;1653960;85;20937;-67
2021/07/10 05:37:07;;;;;;;8.10;3.08;;;;;;;24.02;82.36;99365.87;1684429;84;21519;-66
2021/07/10 05:39:34;;;;;;;6.35;3.00;;;;;;;23.94;81.09;99361.87;1682291;84;20999;-66
2021/07/10 05:42:01;;;;;;;4.72;2.90;;;;;;;23.57;80.88;99360.49;1682254;84;21057;-66
2021/07/10 05:44:28;;;;;;;5.58;3.30;;;;;;;23.17;80.31;99364.75;1684395;84;20879;-66
2021/07/10 05:46:54;;;;;;;21.97;3.92;;;;;;;22.58;80.02;99366.47;1679770;84;20922;-66
2021/07/10 05:49:21;;;;;;;10.23;4.08;;;;;;;21.99;80.08;99361.73;1647538;86;20959;-66
2021/07/10 05:51:48;;;;;;;5.60;3.98;;;;;;;21.51;80.65;99364.31;1674441;84;20966;-66
2021/07/10 05:54:15;;;;;;;5.28;3.87;;;;;;;21.27;81.42;99370.66;1678401;84;21061;-65
2021/07/10 05:56:42;;;;;;;4.67;3.72;;;;;;;21.11;81.13;99373.95;1677255;84;21553;-66
2021/07/10 05:59:08;;;;;;;4.08;3.67;;;;;;;20.94;81.20;99366.30;1653118;86;21915;-66
2021/07/10 06:01:35;;;;;;;12.80;4.35;;;;;;;20.77;80.90;99366.09;1639829;85;20977;-66
2021/07/10 06:04:02;;;;;;;5.58;4.30;;;;;;;20.51;81.21;99372.52;1688283;84;20986;-66
2021/07/10 06:06:28;;;;;;;4.87;4.33;;;;;;;20.30;81.27;99371.87;1678797;84;20991;-66
2021/07/10 06:08:55;;;;;;;4.72;4.33;;;;;;;20.15;81.29;99376.79;1682511;84;21518;-66
2021/07/10 06:11:21;;;;;;;6.10;4.33;;;;;;;20.01;81.14;99369.28;1690345;84;20935;-65
2021/07/10 06:13:48;;;;;;;5.37;4.45;;;;;;;19.99;81.52;99372.55;1646017;85;20931;-66
2021/07/10 06:16:17;;;;;;;4.85;4.03;;;;;;;20.18;81.89;99365.90;1673215;84;21028;-65
2021/07/10 06:18:44;;;;;;;6.15;4.78;;;;;;;20.55;82.31;99363.30;1671241;84;21065;-66
2021/07/10 06:21:11;;;;;;;5.85;4.45;;;;;;;21.73;82.98;99366.15;1677753;83;20884;-66
2021/07/10 06:23:39;;;;;;;7.00;4.45;;;;;;;22.72;81.81;99360.55;1681544;84;20931;-66
2021/07/10 06:26:06;;;;;;;6.37;3.70;;;;;;;23.40;80.84;99357.80;1684639;84;20963;-66
2021/07/10 06:28:32;;;;;;;;;;;;;;;24.19;80.15;99359.51;1685160;84;21316;-67
2021/07/10 06:30:58;;;;;;;;;;;;;;;25.07;78.43;99354.61;1672063;85;22310;-67
2021/07/10 06:33:24;;;;;;;;;;;;;;;25.46;76.69;99353.74;1676810;85;20128;-66
2021/07/10 06:35:51;;;;;;;4.37;3.37;;;;;;;25.38;76.71;99362.64;1644712;85;20134;-67
2021/07/10 06:38:18;;;;;;;6.17;3.47;;;;;;;25.73;77.17;99359.55;1642394;86;21681;-67
2021/07/10 06:40:44;;;;;;;;;;;;;;;25.89;75.86;99367.48;1671079;85;20936;-67
2021/07/10 06:43:10;;;;;;;12.70;3.20;;;;;;;25.94;75.49;99367.78;1671273;85;21041;-67
2021/07/10 06:45:37;;;;;;;;;;;;;;;25.83;76.27;99365.53;1672862;85;20920;-66
2021/07/10 06:48:04;;;;;;;4.10;2.90;;;;;;;25.96;75.90;99371.08;1672524;85;20153;-66
2021/07/10 06:50:31;;;;;;;7.37;2.98;;;;;;;26.55;76.36;99367.70;1675914;85;20970;-66
2021/07/10 06:52:58;;;;;;;6.00;2.95;;;;;;;26.96;75.78;99370.73;1669793;84;21478;-66
2021/07/10 06:55:24;;;;;;;5.15;3.65;;;;;;;26.89;73.69;99366.33;1672058;84;21461;-67
2021/07/10 06:57:51;;;;;;;4.30;3.30;;;;;;;26.31;73.09;99379.48;1649324;84;20949;-66
2021/07/10 07:00:19;;;;;;;6.78;2.72;;;;;;;25.66;72.36;99378.16;1645066;84;20899;-66
2021/07/10 07:02:46;;;;;;;6.62;3.15;;;;;;;25.22;73.74;99376.92;1675291;84;20951;-66
2021/07/10 07:05:13;;;;;;;5.70;2.55;;;;;;;25.34;73.61;99381.86;1682139;84;21379;-66
2021/07/10 07:07:40;;;;;;;4.67;2.98;;;;;;;25.46;73.30;99384.48;1676943;84;21062;-67
2021/07/10 07:10:10;;;;;;;3.90;2.60;;;;;;;25.39;72.94;99384.84;1669554;84;20958;-67
2021/07/10 07:12:37;;;;;;;7.87;2.50;;;;;;;25.43;72.22;99376.79;1680715;84;20922;-67
2021/07/10 07:15:08;;;;;;;4.15;2.60;;;;;;;25.59;72.78;99380.70;1673375;84;21648;-67
2021/07/10 07:17:34;;;;;;;2.50;2.30;;;;;;;25.82;72.17;99380.72;1667757;84;20995;-67
2021/07/10 07:20:04;;;;;;;7.97;2.12;;;;;;;25.73;71.75;99380.95;1671003;84;21045;-67
2021/07/10 07:22:30;;;;;;;3.12;2.15;;;;;;;25.89;71.53;99383.53;1624983;85;21001;-66
2021/07/10 07:24:57;;;;;;;8.23;2.27;;;;;;;26.11;71.33;99371.14;1658066;84;20942;-66
2021/07/10 07:27:24;;;;;;;2.60;1.77;;;;;;;26.11;70.27;99371.97;1625996;86;21533;-66
2021/07/10 07:29:50;;;;;;;4.45;1.92;;;;;;;26.17;70.49;99374.94;1658732;84;20855;-66
2021/07/10 07:32:17;;;;;;;5.30;1.85;;;;;;;26.42;70.36;99376.35;1657411;84;21121;-67
2021/07/10 07:34:47;;;;;;;5.17;1.70;;;;;;;26.52;69.36;99374.28;1656981;84;21881;-67
2021/07/10 07:37:12;;;;;;;1.70;1.32;;;;;;;26.40;69.11;99381.05;1628869;85;20914;-65
2021/07/10 07:39:41;;;;;;;4.92;2.08;;;;;;;26.26;68.55;99382.69;1621973;86;21043;-66
2021/07/10 07:42:10;;;;;;;4.05;1.95;;;;;;;26.00;68.41;99385.77;1589949;87;20997;-66
2021/07/10 07:44:37;;;;;;;2.85;1.90;;;;;;;25.85;69.02;99398.25;1656556;84;21972;-66
2021/07/10 07:47:04;;;;;;;2.27;1.90;;;;;;;25.74;68.56;99391.95;1657650;84;21473;-66
2021/07/10 07:49:31;;;;;;;2.47;1.70;;;;;;;25.60;68.55;99393.07;1648359;84;20940;-66
2021/07/10 07:51:57;;;;;;;;;;;;;;;25.09;67.61;99391.30;1665454;84;20926;-64
2021/07/10 07:54:25;;;;;;;;;;;;;;;24.61;67.41;99386.47;1665437;84;20127;-65
2021/07/10 07:56:53;;;;;;;3.33;1.80;;;;;;;24.61;67.57;99389.14;1662399;84;21120;-65
2021/07/10 07:59:20;;;;;;;5.97;2.20;;;;;;;24.54;67.90;99378.84;1659862;84;20945;-65
2021/07/10 08:01:50;;;;;;;2.42;2.20;;;;;;;24.87;68.82;99380.05;1652334;84;20929;-65
2021/07/10 08:04:17;;;;;;;5.55;2.45;;;;;;;25.15;67.93;99378.64;1660324;84;20942;-65
2021/07/10 08:06:43;;;;;;;;;;;;;;;24.88;66.84;99377.73;1665441;84;20951;-65
2021/07/10 08:09:10;;;;;;;;;;;;;;;24.53;66.77;99384.69;1661580;84;21129;-65
2021/07/10 08:11:41;;;;;;;5.25;2.40;;;;;;;24.31;66.63;99387.52;1657348;84;20110;-66
2021/07/10 08:14:06;;;;;;;6.20;2.45;;;;;;;24.18;66.89;99391.20;1656105;84;21474;-66
2021/07/10 08:16:33;;;;;;;4.53;2.72;;;;;;;24.16;67.14;99385.19;1656357;84;20946;-66
2021/07/10 08:19:00;;;;;;;5.58;2.30;;;;;;;24.15;66.88;99383.53;1652926;84;21022;-65
2021/07/10 08:21:29;;;;;;;2.65;2.33;;;;;;;24.00;66.59;99387.39;1677464;84;21023;-66
2021/07/10 08:23:56;;;;;;;2.70;2.30;;;;;;;24.04;67.05;99389.21;1681757;84;20940;-66
2021/07/10 08:26:22;;;;;;;6.85;2.33;;;;;;;24.24;67.01;99391.86;1691700;84;20998;-65
2021/07/10 08:28:49;;;;;;;3.55;2.08;;;;;;;24.41;66.56;99398.51;1686068;84;20979;-66
2021/07/10 08:31:16;;;;;;;2.87;2.00;;;;;;;24.48;66.46;99399.54;1654610;86;26873;-66
2021/07/10 08:33:43;;;;;;;3.85;1.82;;;;;;;24.41;65.71;99397.17;1652706;85;22289;-66
2021/07/10 08:36:09;;;;;;;2.27;1.77;;;;;;;24.11;65.32;99408.86;1677436;85;21482;-65
2021/07/10 08:38:37;;;;;;;3.40;1.62;;;;;;;23.78;65.78;99414.20;1648704;86;20927;-66
2021/07/10 08:41:10;;;;;;;2.22;1.67;;;;;;;23.54;65.67;99422.11;1646924;86;20954;-66
2021/07/10 08:43:39;;;;;;;2.80;1.70;;;;;;;23.24;65.66;99419.02;1641030;86;20996;-65
2021/07/10 08:46:07;;;;;;;7.37;1.82;;;;;;;22.94;65.41;99419.88;1669121;84;21068;-66
2021/07/10 08:48:36;;;;;;;2.62;1.90;;;;;;;22.76;66.03;99430.58;1666152;84;20920;-66
2021/07/10 08:51:06;;;;;;;2.20;1.85;;;;;;;22.76;66.11;99427.09;1667143;84;21606;-66
2021/07/10 08:53:34;;;;;;;6.87;1.70;;;;;;;22.78;66.00;99431.77;1666405;84;20968;-64
2021/07/10 08:56:01;;;;;;;4.67;1.70;;;;;;;22.63;65.51;99430.66;1644159;86;20891;-65
2021/07/10 08:58:28;;;;;;;2.22;1.40;;;;;;;22.43;65.62;99432.70;1678347;84;20992;-65
2021/07/10 09:00:55;;;;;;;7.15;1.62;;;;;;;22.47;66.03;99434.91;1679041;84;20899;-64
2021/07/10 09:03:21;;;;;;;4.30;1.52;;;;;;;22.64;66.39;99431.02;1675452;84;20911;-65
2021/07/10 09:05:48;;;;;;;1.27;1.17;;;;;;;22.86;66.12;99434.48;1683561;84;20990;-65
2021/07/10 09:08:29;;;;;;;2.25;1.00;;;;;;;22.70;65.54;99438.38;1685415;84;20907;-64
2021/07/10 09:11:01;;;;;;;7.78;1.50;;;;;;;22.47;65.43;99442.05;1684893;83;21059;-65
2021/07/10 09:13:42;;;;;;;2.52;1.00;;;;;;;22.20;65.32;99448.33;1683347;84;21058;-64
2021/07/10 09:16:16;;;;;;;1.65;1.00;;;;;;;22.19;65.99;99441.34;1684507;84;20942;-65
2021/07/10 09:18:56;;;;;;;1.40;1.12;;;;;;;22.48;66.25;99441.88;1655384;86;20956;-65
2021/07/10 09:21:48;;;;;;;3.62;1.30;;;;;;;23.01;66.71;99432.91;1668617;84;20890;-64
2021/07/10 09:24:31;;;;;;;1.80;1.00;;;;;;;23.46;66.20;99431.73;1660865;84;21738;-65
2021/07/10 09:27:04;;;;;;;9.40;1.10;;;;;;;23.25;65.00;99444.67;1666588;84;20988;-63
2021/07/10 09:29:40;;;;;;;4.60;1.10;;;;;;;22.63;64.90;99442.64;1660262;84;20892;-64
2021/07/10 09:32:14;;;;;;;4.47;0.90;;;;;;;22.29;65.23;99448.72;1661625;84;20959;-64
2021/07/10 09:34:48;;;;;;;5.60;0.95;;;;;;;22.25;65.31;99446.05;1665940;84;21526;-65
2021/07/10 09:37:21;;;;;;;1.32;0.88;;;;;;;22.53;65.99;99452.90;1664301;84;21526;-65
2021/07/10 09:40:01;;;;;;;1.12;0.72;;;;;;;22.69;64.83;99462.00;1666395;84;21439;-64
2021/07/10 09:42:35;;;;;;;1.05;0.62;;;;;;;22.50;65.08;99453.22;1635513;86;20931;-65
2021/07/10 09:45:06;;;;;;;0.78;0.78;;;;;;;22.38;65.10;99451.81;1639384;85;22101;-65
2021/07/10 09:47:36;;;;;;;4.00;0.78;;;;;;;22.49;65.25;99451.55;1667512;84;20971;-65
2021/07/10 09:50:08;;;;;;;1.07;0.78;;;;;;;22.49;65.00;99446.23;1659432;84;21058;-65
2021/07/10 09:52:39;;;;;;;1.45;0.95;;;;;;;22.53;65.10;99447.58;1662473;84;20878;-64
2021/07/10 09:55:12;;;;;;;2.33;0.75;;;;;;;22.74;65.82;99443.70;1631237;86;20924;-66
2021/07/10 09:57:45;;;;;;;0.80;0.62;;;;;;;22.93;65.20;99440.82;1668121;84;20955;-64
2021/07/10 10:00:19;;;;;;;3.65;0.78;;;;;;;22.98;64.80;99446.55;1663234;84;22040;-67
2021/07/10 10:02:49;;;;;;;3.65;0.50;;;;;;;23.08;64.87;99453.56;1627921;86;22063;-66
2021/07/10 10:05:19;;;;;;;1.40;0.57;;;;;;;23.12;64.66;99457.59;1662907;84;20881;-66
2021/07/10 10:07:50;;;;;;;5.97;0.70;;;;;;;23.15;64.57;99451.95;1634610;86;20889;-66
2021/07/10 10:10:34;;;;;;;1.45;0.50;;;;;;;23.12;64.53;99451.77;1636855;86;20989;-66
2021/07/10 10:13:11;;;;;;;1.45;0.50;;;;;;;23.14;64.41;99452.95;1666550;84;20955;-66
2021/07/10 10:15:48;;;;;;;1.47;0.78;;;;;;;23.19;64.42;99455.95;1654171;84;21039;-66
2021/07/10 10:18:19;;;;;;;2.02;0.80;;;;;;;23.23;64.13;99459.98;1654793;84;20952;-66
2021/07/10 10:20:47;;;;;;;4.30;0.68;;;;;;;23.15;64.22;99462.60;1652400;84;20977;-66
2021/07/10 10:23:17;;;;;;;1.35;0.53;;;;;;;23.14;64.15;99468.43;1645887;85;20897;-68
2021/07/10 10:25:46;;;;;;;3.27;0.60;;;;;;;23.22;63.98;99468.97;1646027;85;20919;-66
2021/07/10 10:28:18;;;;;;;3.10;0.60;;;;;;;23.39;64.52;99473.36;1644051;85;21009;-65
2021/07/10 10:30:54;;;;;;;8.45;1.22;;;;;;;;;;1642621;85;20918;-66
2021/07/10 10:33:22;;;;;;;2.45;0.60;;;;;;;23.93;64.47;99473.53;1626111;86;20964;-66
2021/07/10 10:35:53;;;;;;;1.67;0.45;;;;;;;24.41;64.30;99473.22;1642356;85;20955;-66
2021/07/10 10:38:20;;;;;;;0.62;0.40;;;;;;;24.68;63.85;99471.56;1627573;86;21344;-66
2021/07/10 10:40:51;;;;;;;0.60;0.45;;;;;;;24.86;63.91;99482.53;1652881;84;21464;-66
2021/07/10 10:43:23;;;;;;;1.57;0.50;;;;;;;24.84;62.90;99472.00;1658482;84;20975;-65
2021/07/10 10:45:49;;;;;;;2.22;0.55;;;;;;;24.60;62.91;99476.08;1638760;84;20933;-66
2021/07/10 10:48:35;;;;;;;1.00;0.50;;;;;;;24.34;62.86;99467.22;1648107;85;20891;-66
2021/07/10 10:51:01;;;;;;;1.00;0.50;;;;;;;24.18;62.89;99481.89;1665450;84;20980;-66
2021/07/10 10:53:28;;;;;;;0.90;0.50;;;;;;;23.99;62.66;99487.53;1592540;88;21141;-65
2021/07/10 10:55:55;;;;;;;2.50;0.40;;;;;;;23.83;62.76;99493.16;1646127;85;20960;-65
2021/07/10 10:58:26;;;;;;;1.77;0.50;;;;;;;23.70;62.56;99496.78;1649189;85;21035;-65
2021/07/10 11:01:08;;;;;;;2.20;0.60;;;;;;;23.55;62.15;99495.72;1656365;84;20975;-65
2021/07/10 11:03:42;;;;;;;1.17;0.37;;;;;;;23.39;62.37;99505.34;1647870;85;20975;-66
2021/07/10 11:06:26;;;;;;;3.83;0.50;;;;;;;23.23;61.98;99499.93;1627192;86;21132;-66
2021/07/10 11:08:55;;;;;;;2.08;0.50;;;;;;;23.14;62.90;99503.55;1650607;84;20942;-67
2021/07/10 11:11:24;;;;;;;2.72;0.80;;;;;;;23.66;63.10;99499.42;1653322;84;20911;-66
2021/07/10 11:14:10;;;;;;;2.27;0.40;;;;;;;23.89;62.86;99501.03;1627072;86;20967;-66
2021/07/10 11:17:07;;;;;;;3.25;0.65;;;;;;;24.07;62.74;99502.22;1652316;84;21028;-67
2021/07/10 11:19:48;;;;;;;2.27;0.40;;;;;;;24.07;62.67;99504.88;1654938;84;21028;-68
2021/07/10 11:22:56;;;;;;;2.30;0.68;;;;;;;23.82;62.08;99510.16;1617165;86;21083;-67
2021/07/10 11:25:52;;;;;;;0.60;0.20;;;;;;;23.52;62.18;99510.70;1603650;87;20971;-67
2021/07/10 11:28:22;;;;;;;0.40;0.23;;;;;;;22.90;61.68;99525.00;1650699;85;21007;-66
2021/07/10 11:30:53;;;;;;;1.15;0.40;;;;;;;22.21;62.19;99525.30;1645498;84;20974;-66
2021/07/10 11:33:57;;;;;;;0.60;0.40;;;;;;;21.78;62.41;99531.28;1616143;85;20984;-67
2021/07/10 11:36:42;;;;;;;1.50;0.45;;;;;;;21.42;62.57;99535.17;1651218;84;20993;-66
2021/07/10 11:39:32;;;;;;;1.85;0.60;;;;;;;21.18;63.25;99540.48;1652536;84;21530;-67